Time;durP1;ratioP1;P1;durP2;ratioP2;P2;SDS_P1;SDS_P2;PMS_P1;PMS_P2;Temp;Humidity;BMP_temperature;BMP_pressure;BME280_temperature;BME280_humidity;BME280_pressure;Samples;Min_cycle;Max_cycle;Signal;HPM_P1;HPM_P2
2022/03/22 00:01:28;;;;;;;59.08;33.65;;;9.10;99.90;;;;;;5050723;28;20429;-46
2022/03/22 00:03:54;;;;;;;57.35;34.58;;;9.10;99.90;;;;;;5050845;28;20159;-46
2022/03/22 00:06:20;;;;;;;55.20;33.58;;;9.10;99.90;;;;;;5050765;28;20044;-45
2022/03/22 00:08:46;;;;;;;49.92;32.65;;;9.10;99.90;;;;;;5050583;28;20492;-46
2022/03/22 00:11:12;;;;;;;55.42;34.58;;;9.00;99.90;;;;;;5050356;28;20041;-48
2022/03/22 00:13:39;;;;;;;57.17;34.42;;;9.00;99.90;;;;;;5050417;28;20033;-48
2022/03/22 00:16:07;;;;;;;59.13;33.47;;;9.00;99.90;;;;;;5050648;28;20048;-48
2022/03/22 00:18:34;;;;;;;52.15;33.88;;;9.00;99.90;;;;;;5049771;28;20052;-49
2022/03/22 00:21:00;;;;;;;59.65;33.10;;;9.00;99.90;;;;;;5050449;28;20112;-47
2022/03/22 00:23:26;;;;;;;59.47;34.33;;;9.00;99.90;;;;;;5050499;28;20139;-47
2022/03/22 00:25:52;;;;;;;56.33;34.03;;;9.00;99.90;;;;;;5050500;28;20050;-45
2022/03/22 00:28:18;;;;;;;54.08;33.83;;;9.00;99.90;;;;;;5046562;28;20060;-47
2022/03/22 00:30:45;;;;;;;54.60;33.70;;;9.00;99.90;;;;;;5050145;28;20489;-45
2022/03/22 00:33:11;;;;;;;64.18;34.28;;;8.90;99.90;;;;;;5049221;28;20570;-46
2022/03/22 00:35:39;;;;;;;51.15;32.30;;;8.90;99.90;;;;;;5050405;28;20036;-48
2022/03/22 00:38:11;;;;;;;55.80;33.85;;;8.90;99.90;;;;;;5050046;28;20036;-47
2022/03/22 00:40:38;;;;;;;60.33;34.15;;;8.80;99.90;;;;;;5049744;28;20484;-47
2022/03/22 00:43:05;;;;;;;56.90;33.75;;;8.80;99.90;;;;;;5048056;28;20047;-49
2022/03/22 00:45:32;;;;;;;57.08;34.10;;;8.80;99.90;;;;;;5050032;28;20033;-48
2022/03/22 00:47:59;;;;;;;55.42;34.70;;;8.70;99.90;;;;;;5049226;28;20029;-46
2022/03/22 00:50:28;;;;;;;62.05;35.20;;;8.80;99.90;;;;;;5048614;28;20565;-48
2022/03/22 00:52:58;;;;;;;55.38;34.35;;;8.70;99.90;;;;;;5049557;28;20550;-47
2022/03/22 00:55:26;;;;;;;55.13;34.88;;;8.70;99.90;;;;;;5049907;28;20040;-47
2022/03/22 00:57:53;;;;;;;57.13;33.03;;;8.70;99.90;;;;;;5049789;28;20112;-47
2022/03/22 01:00:20;;;;;;;56.03;33.90;;;8.70;99.90;;;;;;5045755;28;20033;-48
2022/03/22 01:02:49;;;;;;;53.83;33.03;;;8.60;99.90;;;;;;5049813;28;20040;-50
2022/03/22 01:05:20;;;;;;;57.15;35.20;;;8.60;99.90;;;;;;5048814;28;20423;-48
2022/03/22 01:07:51;;;;;;;56.05;33.83;;;8.60;99.90;;;;;;5048006;28;20037;-46
2022/03/22 01:10:21;;;;;;;55.60;33.97;;;8.50;99.90;;;;;;5049282;28;20396;-49
2022/03/22 01:12:48;;;;;;;56.38;35.15;;;8.60;99.90;;;;;;5048462;28;20052;-47
2022/03/22 01:15:18;;;;;;;56.10;35.33;;;8.50;99.90;;;;;;5049322;28;20099;-48
2022/03/22 01:17:46;;;;;;;56.58;34.45;;;8.50;99.90;;;;;;5048671;28;20039;-47
2022/03/22 01:20:13;;;;;;;62.63;36.50;;;8.50;99.90;;;;;;5049255;28;20390;-48
2022/03/22 01:22:45;;;;;;;63.55;36.60;;;8.50;99.90;;;;;;5050003;28;20453;-46
2022/03/22 01:25:23;;;;;;;66.20;36.80;;;8.50;99.90;;;;;;5046631;28;20040;-47
2022/03/22 01:27:49;;;;;;;62.42;36.83;;;8.50;99.90;;;;;;5049231;28;20072;-47
2022/03/22 01:30:19;;;;;;;59.33;35.45;;;8.40;99.90;;;;;;5049560;28;20037;-46
2022/03/22 01:32:46;;;;;;;60.63;35.20;;;8.40;99.90;;;;;;5048097;28;20099;-47
2022/03/22 01:35:12;;;;;;;56.70;32.92;;;8.40;99.90;;;;;;5049967;28;20033;-46
2022/03/22 01:37:39;;;;;;;55.38;33.15;;;8.40;99.90;;;;;;5049573;28;20337;-47
2022/03/22 01:40:06;;;;;;;55.95;33.75;;;8.30;99.90;;;;;;5049414;28;20400;-45
2022/03/22 01:42:33;;;;;;;58.47;33.55;;;8.20;99.90;;;;;;5047776;28;20124;-47
2022/03/22 01:44:58;;;;;;;54.33;33.90;;;8.30;99.90;;;;;;5049502;28;20041;-46
2022/03/22 01:47:24;;;;;;;55.25;33.60;;;8.30;99.90;;;;;;5047096;28;20033;-50
2022/03/22 01:49:51;;;;;;;54.30;32.83;;;8.20;99.90;;;;;;5049212;28;20108;-49
2022/03/22 01:52:20;;;;;;;55.33;33.15;;;8.20;99.90;;;;;;5049442;28;20067;-47
2022/03/22 01:54:49;;;;;;;53.63;32.25;;;8.20;99.90;;;;;;5052233;28;20044;-50
2022/03/22 01:57:23;;;;;;;55.60;34.28;;;8.10;99.90;;;;;;5050291;28;20051;-48
2022/03/22 01:59:49;;;;;;;56.97;33.22;;;8.10;99.90;;;;;;5049685;28;20193;-45
2022/03/22 02:07:46;;;;;;;53.60;33.83;;;8.00;99.90;;;;;;5050651;28;20055;-49
2022/03/22 02:10:13;;;;;;;63.85;34.47;;;8.00;99.90;;;;;;5050561;28;20073;-47
2022/03/22 02:12:40;;;;;;;56.88;34.20;;;7.90;99.90;;;;;;5051250;28;20040;-45
2022/03/22 02:15:07;;;;;;;59.28;32.83;;;7.90;99.90;;;;;;5040231;28;20041;-49
2022/03/22 02:17:34;;;;;;;56.38;34.75;;;7.90;99.90;;;;;;5048964;28;20061;-46
2022/03/22 02:20:01;;;;;;;55.33;33.53;;;7.90;99.90;;;;;;5040824;28;20056;-47
2022/03/22 02:22:34;;;;;;;58.22;34.72;;;7.70;99.90;;;;;;5027390;28;20041;-46
2022/03/22 02:25:01;;;;;;;58.80;35.08;;;7.90;99.90;;;;;;5045281;28;20044;-50
2022/03/22 02:27:29;;;;;;;52.35;33.65;;;7.70;99.90;;;;;;5044455;28;20041;-47
2022/03/22 02:29:58;;;;;;;56.25;33.60;;;7.80;99.90;;;;;;5046308;28;20150;-51
2022/03/22 02:32:24;;;;;;;52.88;32.67;;;7.70;99.90;;;;;;5045059;28;20034;-47
2022/03/22 02:34:51;;;;;;;56.45;34.72;;;7.70;99.90;;;;;;5047250;28;20047;-46
2022/03/22 02:37:16;;;;;;;57.55;35.60;;;7.60;99.90;;;;;;5045633;28;20376;-49
2022/03/22 02:39:42;;;;;;;57.97;34.85;;;7.60;99.90;;;;;;5044373;28;20037;-45
2022/03/22 02:42:08;;;;;;;58.28;33.70;;;7.70;99.90;;;;;;5044175;28;20435;-48
2022/03/22 02:44:34;;;;;;;60.33;33.72;;;7.70;99.90;;;;;;5046126;28;20033;-46
2022/03/22 02:47:00;;;;;;;57.03;33.92;;;7.60;99.90;;;;;;5043756;28;20033;-46
2022/03/22 02:49:26;;;;;;;52.40;33.55;;;7.60;99.90;;;;;;5046327;28;20073;-46
2022/03/22 02:51:51;;;;;;;55.80;34.47;;;7.70;99.90;;;;;;5045670;28;20059;-46
2022/03/22 02:54:17;;;;;;;52.00;33.17;;;7.60;99.90;;;;;;5043459;28;20059;-48
2022/03/22 02:56:43;;;;;;;59.65;33.50;;;7.60;99.90;;;;;;5045937;28;20552;-48
2022/03/22 02:59:09;;;;;;;56.58;33.70;;;7.60;99.90;;;;;;5045960;28;20381;-47
2022/03/22 03:01:35;;;;;;;56.42;35.47;;;7.70;99.90;;;;;;5050485;28;20411;-50
2022/03/22 03:04:01;;;;;;;60.67;34.90;;;7.60;99.90;;;;;;5051197;28;20087;-46
2022/03/22 03:06:29;;;;;;;63.35;35.45;;;7.60;99.90;;;;;;5050933;28;20396;-47
2022/03/22 03:08:59;;;;;;;56.33;33.97;;;7.60;99.90;;;;;;5052283;28;20076;-47
2022/03/22 03:11:26;;;;;;;53.80;33.50;;;7.60;99.90;;;;;;5050933;28;20040;-45
2022/03/22 03:16:38;;;;;;;59.17;35.38;;;7.50;99.90;;;;;;5050886;28;20562;-48
2022/03/22 03:19:04;;;;;;;57.00;34.53;;;7.40;99.90;;;;;;5051572;28;20048;-49
2022/03/22 03:21:30;;;;;;;56.58;33.40;;;7.40;99.90;;;;;;5051865;28;20404;-49
2022/03/22 03:23:56;;;;;;;58.50;34.70;;;7.40;99.90;;;;;;5050490;28;20442;-46
2022/03/22 03:26:21;;;;;;;55.63;34.83;;;7.40;99.90;;;;;;5052167;28;20029;-48
2022/03/22 03:28:47;;;;;;;57.00;34.85;;;7.40;99.90;;;;;;5050373;28;20047;-46
2022/03/22 03:31:13;;;;;;;57.05;33.40;;;7.40;99.90;;;;;;5050495;28;20036;-47
2022/03/22 03:33:39;;;;;;;55.58;33.88;;;7.30;99.90;;;;;;5051797;28;20438;-46
2022/03/22 03:36:05;;;;;;;55.47;35.00;;;7.30;99.90;;;;;;5052148;28;20382;-46
2022/03/22 03:38:31;;;;;;;59.60;34.67;;;7.20;99.90;;;;;;5051963;28;20052;-47
2022/03/22 03:43:41;;;;;;;;;;;7.20;99.90;;;;;;5049928;28;20102;-46
2022/03/22 03:48:51;;;;;;;;;;;7.10;99.90;;;;;;5051426;28;20040;-47
2022/03/22 03:51:18;;;;;;;58.05;33.40;;;7.10;99.90;;;;;;5049545;28;19982;-47
2022/03/22 03:53:44;;;;;;;63.05;35.17;;;7.10;99.90;;;;;;5049666;28;20048;-47
2022/03/22 03:56:10;;;;;;;55.08;34.92;;;7.10;99.90;;;;;;5050150;28;20048;-46
2022/03/22 03:58:36;;;;;;;61.15;34.35;;;7.10;99.90;;;;;;5048538;28;20049;-47
2022/03/22 04:01:02;;;;;;;58.50;35.55;;;7.10;99.90;;;;;;5050858;28;20541;-47
2022/03/22 04:03:28;;;;;;;56.83;33.90;;;7.10;99.90;;;;;;5051675;28;20431;-45
2022/03/22 04:05:53;;;;;;;56.50;35.20;;;7.10;99.90;;;;;;5051104;28;20400;-49
2022/03/22 04:08:19;;;;;;;58.85;35.50;;;7.00;99.90;;;;;;5051419;28;20171;-47
2022/03/22 04:10:45;;;;;;;59.72;34.75;;;7.00;99.90;;;;;;5051143;28;20427;-45
2022/03/22 04:13:11;;;;;;;56.30;34.88;;;7.00;99.90;;;;;;5048087;28;20041;-47
2022/03/22 04:15:36;;;;;;;60.60;35.30;;;7.00;99.90;;;;;;5050964;28;20068;-45
2022/03/22 04:18:02;;;;;;;62.63;35.80;;;6.90;99.90;;;;;;5049791;28;20033;-46
2022/03/22 04:20:30;;;;;;;62.92;36.40;;;6.90;99.90;;;;;;5050858;28;20125;-47
2022/03/22 04:22:55;;;;;;;58.85;34.92;;;6.80;99.90;;;;;;5050879;28;20127;-47
2022/03/22 04:25:21;;;;;;;59.50;34.83;;;6.90;99.90;;;;;;5050378;28;20552;-49
2022/03/22 04:33:15;;;;;;;60.97;34.25;;;6.70;99.90;;;;;;5051219;28;20455;-49
2022/03/22 04:35:41;;;;;;;58.70;35.53;;;6.70;99.90;;;;;;5048804;28;20123;-47
2022/03/22 04:38:07;;;;;;;62.05;36.70;;;6.70;99.90;;;;;;5051080;28;20069;-46
2022/03/22 04:40:33;;;;;;;61.92;36.92;;;6.70;99.90;;;;;;5049620;28;20507;-46
2022/03/22 04:42:58;;;;;;;56.88;34.58;;;6.80;99.90;;;;;;5050967;28;20523;-47
2022/03/22 04:45:25;;;;;;;59.85;34.38;;;6.70;99.90;;;;;;5048518;28;20033;-46
2022/03/22 04:47:50;;;;;;;57.95;34.15;;;6.70;99.90;;;;;;5050440;28;20124;-46
2022/03/22 04:50:17;;;;;;;61.75;36.05;;;6.70;99.90;;;;;;5050735;28;20605;-48
2022/03/22 04:58:13;;;;;;;62.03;34.88;;;6.70;99.90;;;;;;5049776;28;20083;-46
2022/03/22 05:00:39;;;;;;;59.40;35.45;;;6.70;99.90;;;;;;5050444;28;20072;-45
2022/03/22 05:03:08;;;;;;;57.50;34.08;;;6.70;99.90;;;;;;5050783;28;20037;-44
2022/03/22 05:08:18;;;;;;;58.30;34.83;;;6.80;99.90;;;;;;5050938;28;20495;-45
2022/03/22 05:10:44;;;;;;;60.75;36.28;;;6.70;99.90;;;;;;5050267;28;20033;-49
2022/03/22 05:13:10;;;;;;;58.85;34.67;;;6.70;99.90;;;;;;5049254;28;20044;-47
2022/03/22 05:15:36;;;;;;;62.42;36.58;;;6.70;99.90;;;;;;5050467;28;20477;-49
2022/03/22 05:18:02;;;;;;;56.75;34.60;;;6.70;99.90;;;;;;5049786;28;20120;-45
2022/03/22 05:20:28;;;;;;;58.83;34.83;;;6.60;99.90;;;;;;5049060;28;20535;-48
2022/03/22 05:22:54;;;;;;;60.38;34.92;;;6.60;99.90;;;;;;5050364;28;20040;-46
2022/03/22 05:25:20;;;;;;;61.65;34.67;;;6.50;99.90;;;;;;5050056;28;20045;-47
2022/03/22 05:27:45;;;;;;;58.38;34.60;;;6.60;99.90;;;;;;5048757;28;20109;-46
2022/03/22 05:30:13;;;;;;;61.08;36.53;;;6.50;99.90;;;;;;5054181;28;20495;-46
2022/03/22 05:32:39;;;;;;;56.92;34.40;;;6.50;99.90;;;;;;5054124;28;20040;-48
2022/03/22 05:35:05;;;;;;;57.47;35.50;;;6.40;99.90;;;;;;5053107;28;20119;-45
2022/03/22 05:37:31;;;;;;;59.50;35.88;;;6.40;99.90;;;;;;5054024;28;20396;-49
2022/03/22 05:39:57;;;;;;;64.47;35.67;;;6.50;99.90;;;;;;5052527;28;20041;-48
2022/03/22 05:42:23;;;;;;;59.67;35.47;;;6.40;99.90;;;;;;5052172;28;20039;-48
2022/03/22 05:44:49;;;;;;;60.22;35.60;;;6.40;99.90;;;;;;5053988;28;20044;-49
2022/03/22 05:47:16;;;;;;;66.10;36.33;;;6.40;99.90;;;;;;5052085;28;20041;-50
2022/03/22 05:49:42;;;;;;;63.47;36.92;;;6.40;99.90;;;;;;5052748;28;20045;-47
2022/03/22 05:52:07;;;;;;;60.83;35.58;;;6.30;99.90;;;;;;5050506;28;20582;-50
2022/03/22 05:54:34;;;;;;;58.17;35.60;;;6.40;99.90;;;;;;5051865;28;20099;-47
2022/03/22 05:57:00;;;;;;;61.55;35.88;;;6.40;99.90;;;;;;5053568;28;20048;-48
2022/03/22 05:59:26;;;;;;;60.90;36.13;;;6.40;99.90;;;;;;5052513;28;20095;-46
2022/03/22 06:01:51;;;;;;;61.60;36.60;;;6.40;99.90;;;;;;5051714;28;20424;-47
2022/03/22 06:04:19;;;;;;;61.30;36.17;;;6.40;99.90;;;;;;5052510;28;20452;-47
2022/03/22 06:06:47;;;;;;;60.00;35.25;;;6.30;99.90;;;;;;5053701;28;20048;-45
2022/03/22 06:09:13;;;;;;;61.22;35.60;;;6.40;99.90;;;;;;5053479;28;20090;-46
2022/03/22 06:11:39;;;;;;;61.00;36.67;;;6.40;99.90;;;;;;5053296;28;20500;-48
2022/03/22 06:14:05;;;;;;;60.42;35.40;;;6.30;99.90;;;;;;5053788;28;20040;-48
2022/03/22 06:16:31;;;;;;;64.50;36.70;;;6.40;99.90;;;;;;5053623;28;20045;-45
2022/03/22 06:18:58;;;;;;;57.05;36.00;;;6.40;99.90;;;;;;5051477;28;20041;-48
2022/03/22 06:21:25;;;;;;;62.95;35.33;;;6.50;99.90;;;;;;5053503;28;21021;-48
2022/03/22 06:23:52;;;;;;;63.60;35.47;;;6.60;99.90;;;;;;5053120;28;20029;-50
2022/03/22 06:26:18;;;;;;;56.05;34.25;;;6.60;99.90;;;;;;5052314;28;20079;-45
2022/03/22 06:28:44;;;;;;;56.20;36.30;;;6.60;99.90;;;;;;5053576;28;20037;-48
2022/03/22 06:31:10;;;;;;;60.88;35.83;;;6.70;99.90;;;;;;5053350;28;20512;-47
2022/03/22 06:33:36;;;;;;;57.38;33.95;;;6.70;99.90;;;;;;5052846;28;20094;-47
2022/03/22 06:36:04;;;;;;;59.22;35.13;;;6.80;99.90;;;;;;5053197;28;20033;-47
2022/03/22 06:38:32;;;;;;;58.25;33.97;;;6.80;99.90;;;;;;5050916;28;20103;-46
2022/03/22 06:40:58;;;;;;;57.10;33.90;;;6.80;99.90;;;;;;5052302;28;20124;-46
2022/03/22 06:43:25;;;;;;;57.05;34.13;;;7.00;99.90;;;;;;5052956;28;20051;-46
2022/03/22 06:45:50;;;;;;;58.95;34.60;;;6.90;99.90;;;;;;5051536;28;20116;-45
2022/03/22 06:48:17;;;;;;;56.53;33.92;;;7.10;99.90;;;;;;5052594;28;20167;-48
2022/03/22 06:50:44;;;;;;;62.03;34.40;;;7.10;99.90;;;;;;5052678;28;20032;-47
2022/03/22 06:53:10;;;;;;;59.22;34.97;;;7.10;99.90;;;;;;5052564;28;20504;-50
2022/03/22 06:55:37;;;;;;;58.55;35.45;;;7.10;99.90;;;;;;5052757;28;20040;-48
2022/03/22 06:58:04;;;;;;;57.78;33.85;;;7.30;99.90;;;;;;5052496;28;20033;-49
2022/03/22 07:00:31;;;;;;;59.55;34.50;;;7.30;99.90;;;;;;5052759;28;20400;-46
2022/03/22 07:02:58;;;;;;;54.47;32.47;;;7.30;99.90;;;;;;5052691;28;20494;-48
2022/03/22 07:05:24;;;;;;;56.25;34.42;;;7.40;99.90;;;;;;5052837;28;20119;-49
2022/03/22 07:07:50;;;;;;;57.25;34.25;;;7.40;99.90;;;;;;5052655;28;20423;-46
2022/03/22 07:10:18;;;;;;;50.00;32.17;;;7.50;99.90;;;;;;5052234;28;20131;-48
2022/03/22 07:12:55;;;;;;;56.10;33.13;;;7.60;99.90;;;;;;5052940;28;20541;-47
2022/03/22 07:15:23;;;;;;;54.08;33.17;;;7.60;99.90;;;;;;5048601;28;20120;-48
2022/03/22 07:17:52;;;;;;;55.70;33.25;;;7.70;99.90;;;;;;5050901;28;20108;-46
2022/03/22 07:20:19;;;;;;;56.00;32.10;;;7.80;99.90;;;;;;5051053;28;20041;-46
2022/03/22 07:22:46;;;;;;;55.15;31.98;;;7.80;99.90;;;;;;5050849;28;20033;-49
2022/03/22 07:25:11;;;;;;;53.35;33.28;;;7.90;99.90;;;;;;5052340;28;20523;-46
2022/03/22 07:27:37;;;;;;;50.08;32.03;;;8.10;99.90;;;;;;5034223;28;20037;-49
2022/03/22 07:30:04;;;;;;;49.22;31.65;;;8.20;99.90;;;;;;5052477;28;20067;-46
2022/03/22 07:32:30;;;;;;;53.03;32.67;;;8.20;99.90;;;;;;5067663;28;20050;-45
2022/03/22 07:34:59;;;;;;;51.38;31.50;;;8.30;99.90;;;;;;5052266;28;20044;-47
2022/03/22 07:37:25;;;;;;;49.08;31.30;;;8.40;99.90;;;;;;5067560;28;20114;-48
2022/03/22 07:39:51;;;;;;;47.10;30.92;;;8.50;99.90;;;;;;5048968;28;20495;-45
2022/03/22 07:42:17;;;;;;;48.50;30.45;;;8.60;99.90;;;;;;5050609;28;20033;-48
2022/03/22 07:44:42;;;;;;;52.40;31.98;;;8.70;99.90;;;;;;5051613;28;20041;-49
2022/03/22 07:47:08;;;;;;;50.15;30.92;;;8.80;99.90;;;;;;5050886;28;20033;-48
2022/03/22 07:55:03;;;;;;;46.35;29.13;;;9.10;99.90;;;;;;5048701;28;20515;-47
2022/03/22 07:57:29;;;;;;;44.88;28.80;;;9.10;99.90;;;;;;5048718;28;20037;-47
2022/03/22 07:59:54;;;;;;;47.60;27.73;;;9.40;99.90;;;;;;5049237;28;20037;-46
2022/03/22 08:02:20;;;;;;;49.88;28.92;;;9.50;99.90;;;;;;5050702;28;20040;-47
2022/03/22 08:04:46;;;;;;;52.97;28.05;;;9.60;99.90;;;;;;5038128;28;20053;-45
2022/03/22 08:07:11;;;;;;;45.10;28.35;;;9.70;99.90;;;;;;5043268;28;20033;-46
2022/03/22 08:09:37;;;;;;;42.28;27.52;;;9.80;99.90;;;;;;5042937;28;20041;-48
2022/03/22 08:12:03;;;;;;;47.05;27.42;;;9.80;99.90;;;;;;5042565;28;20033;-46
2022/03/22 08:14:30;;;;;;;42.70;27.52;;;10.00;99.90;;;;;;5041968;28;20047;-47
2022/03/22 08:16:55;;;;;;;44.28;26.35;;;10.00;99.90;;;;;;5042152;28;20115;-46
2022/03/22 08:19:21;;;;;;;42.72;27.08;;;10.10;99.90;;;;;;5041176;28;20041;-47
2022/03/22 08:21:48;;;;;;;45.60;25.92;;;10.20;99.90;;;;;;5043368;28;20065;-48
2022/03/22 08:24:14;;;;;;;41.97;25.90;;;10.30;99.90;;;;;;5042248;28;20593;-47
2022/03/22 08:26:40;;;;;;;45.80;26.92;;;10.40;99.90;;;;;;5042081;28;20112;-47
2022/03/22 08:29:06;;;;;;;40.83;25.63;;;10.50;99.90;;;;;;5042908;28;20099;-46
2022/03/22 08:31:32;;;;;;;41.78;26.27;;;10.60;99.90;;;;;;5042859;28;20029;-50
2022/03/22 08:33:58;;;;;;;45.58;25.42;;;10.70;99.90;;;;;;5040442;28;20112;-46
2022/03/22 08:36:24;;;;;;;40.00;25.17;;;10.80;99.90;;;;;;5042909;28;20072;-47
2022/03/22 08:38:49;;;;;;;39.22;23.67;;;10.90;99.90;;;;;;5041490;28;20135;-46
2022/03/22 08:41:16;;;;;;;41.70;25.98;;;11.20;99.90;;;;;;5041320;28;20568;-46
2022/03/22 08:43:42;;;;;;;41.92;25.48;;;11.00;99.90;;;;;;5040961;28;20033;-45
2022/03/22 08:46:08;;;;;;;39.13;23.90;;;11.00;99.90;;;;;;5041052;28;20452;-47
2022/03/22 08:48:34;;;;;;;37.95;24.85;;;11.10;99.90;;;;;;5041570;28;20040;-48
2022/03/22 08:51:01;;;;;;;44.33;25.25;;;11.10;99.90;;;;;;5040925;28;20037;-48
2022/03/22 08:53:27;;;;;;;44.33;26.00;;;11.20;99.90;;;;;;5042101;28;20949;-47
2022/03/22 08:55:53;;;;;;;40.97;24.70;;;11.30;99.90;;;;;;5041581;28;20041;-48
2022/03/22 08:58:18;;;;;;;42.60;24.80;;;11.30;99.90;;;;;;5038455;28;20369;-47
2022/03/22 09:00:48;;;;;;;43.83;25.02;;;11.40;99.90;;;;;;5036063;28;20906;-47
2022/03/22 09:03:14;;;;;;;42.85;25.20;;;11.60;99.90;;;;;;5039977;28;20044;-48
2022/03/22 09:08:25;;;;;;;;;;;11.80;99.90;;;;;;5036588;28;20103;-49
2022/03/22 09:10:51;;;;;;;36.35;23.65;;;11.90;99.90;;;;;;5045650;28;19917;-52
2022/03/22 09:13:18;;;;;;;41.70;25.02;;;12.00;99.90;;;;;;5040115;28;20508;-49
2022/03/22 09:15:45;;;;;;;40.78;25.33;;;12.20;99.90;;;;;;5038699;28;20044;-50
2022/03/22 09:18:13;;;;;;;36.25;22.45;;;12.20;99.90;;;;;;5038660;28;20036;-51
2022/03/22 09:20:41;;;;;;;35.30;22.90;;;12.30;99.90;;;;;;5044571;28;20059;-48
2022/03/22 09:23:08;;;;;;;37.75;23.55;;;12.40;99.90;;;;;;5043736;28;20029;-50
2022/03/22 09:25:35;;;;;;;38.85;24.20;;;12.50;99.90;;;;;;5044553;28;20071;-47
2022/03/22 09:28:01;;;;;;;38.65;23.73;;;12.60;99.90;;;;;;5042902;28;20033;-46
2022/03/22 09:30:27;;;;;;;37.72;22.73;;;12.80;99.90;;;;;;5042856;28;20040;-48
2022/03/22 09:32:53;;;;;;;38.20;24.83;;;12.80;99.90;;;;;;5043074;28;20037;-50
2022/03/22 09:35:19;;;;;;;42.40;24.40;;;12.90;99.90;;;;;;5023888;28;20041;-52
2022/03/22 09:37:47;;;;;;;37.00;22.92;;;13.10;99.90;;;;;;5042034;28;20115;-49
2022/03/22 09:40:14;;;;;;;42.10;24.23;;;13.20;99.90;;;;;;5043282;28;20044;-50
2022/03/22 09:42:45;;;;;;;40.85;24.17;;;13.30;99.90;;;;;;5044203;28;23500;-53
2022/03/22 09:45:19;;;;;;;33.72;22.83;;;13.40;99.90;;;;;;5045100;28;20079;-49
2022/03/22 09:47:46;;;;;;;37.40;23.38;;;13.50;99.90;;;;;;5044127;28;20060;-47
2022/03/22 09:50:15;;;;;;;39.28;23.20;;;13.50;99.90;;;;;;5045517;28;20106;-49
2022/03/22 09:52:41;;;;;;;40.30;24.58;;;13.50;99.90;;;;;;5044950;28;20068;-50
2022/03/22 09:55:09;;;;;;;36.28;23.15;;;13.70;99.90;;;;;;5045272;28;20045;-51
2022/03/22 09:57:36;;;;;;;38.60;25.02;;;13.80;99.90;;;;;;5038537;28;20033;-50
2022/03/22 10:00:03;;;;;;;37.45;23.10;;;13.90;99.90;;;;;;5037299;28;20044;-53
2022/03/22 10:02:35;;;;;;;35.40;23.98;;;14.00;99.90;;;;;;5038141;28;20041;-51
2022/03/22 10:05:01;;;;;;;36.95;23.35;;;14.10;99.90;;;;;;5049191;28;20105;-47
2022/03/22 10:07:28;;;;;;;34.60;22.40;;;14.20;99.90;;;;;;5050648;28;20037;-50
2022/03/22 10:09:56;;;;;;;35.30;22.85;;;14.30;99.90;;;;;;5051647;28;20033;-50
2022/03/22 10:12:29;;;;;;;40.45;24.40;;;14.40;99.90;;;;;;5051450;28;20404;-54
2022/03/22 10:15:05;;;;;;;37.00;22.85;;;14.50;99.90;;;;;;5028640;28;20049;-50
2022/03/22 10:17:31;;;;;;;36.30;23.83;;;14.60;99.90;;;;;;5044163;28;20072;-54
2022/03/22 10:19:57;;;;;;;33.35;21.90;;;14.60;99.90;;;;;;5045436;28;20096;-48
2022/03/22 10:22:24;;;;;;;33.63;20.75;;;14.70;99.90;;;;;;5043780;28;20028;-48
2022/03/22 10:24:55;;;;;;;33.83;22.15;;;14.80;99.90;;;;;;5045038;28;20025;-50
2022/03/22 10:27:32;;;;;;;33.53;21.65;;;14.90;99.90;;;;;;5045014;28;20512;-46
2022/03/22 10:29:59;;;;;;;34.38;21.48;;;15.00;99.90;;;;;;5043550;28;20044;-48
2022/03/22 10:32:39;;;;;;;31.15;20.58;;;15.10;99.90;;;;;;5026437;28;20069;-50
2022/03/22 10:35:25;;;;;;;32.80;19.90;;;15.20;99.90;;;;;;5044033;28;20033;-46
2022/03/22 10:38:04;;;;;;;31.85;19.38;;;15.30;99.90;;;;;;5045638;28;20171;-48
2022/03/22 10:40:41;;;;;;;29.98;19.70;;;15.50;99.90;;;;;;5043986;28;20056;-48
2022/03/22 10:43:11;;;;;;;30.30;18.67;;;15.60;99.90;;;;;;5043727;28;20477;-49
2022/03/22 10:45:48;;;;;;;30.65;19.52;;;15.70;99.90;;;;;;5043795;28;20052;-47
2022/03/22 10:48:19;;;;;;;31.73;20.58;;;15.80;99.90;;;;;;5043713;28;20388;-50
2022/03/22 10:50:49;;;;;;;31.85;19.77;;;16.10;99.90;;;;;;5044581;28;20054;-49
2022/03/22 10:53:20;;;;;;;28.20;18.90;;;16.20;99.90;;;;;;5044904;28;20513;-47
2022/03/22 10:55:46;;;;;;;32.20;19.98;;;16.30;99.90;;;;;;5044719;28;20041;-47
2022/03/22 10:58:21;;;;;;;27.95;17.45;;;16.40;99.90;;;;;;5042935;28;20041;-47
2022/03/22 11:00:48;;;;;;;30.73;18.40;;;16.60;99.90;;;;;;5043868;28;20555;-50
2022/03/22 11:03:17;;;;;;;30.15;19.42;;;16.70;99.90;;;;;;5043548;28;20237;-53
2022/03/22 11:05:52;;;;;;;28.15;18.35;;;16.80;99.90;;;;;;5042819;28;20124;-49
2022/03/22 11:08:22;;;;;;;30.45;17.25;;;17.00;99.90;;;;;;5044409;28;20033;-48
2022/03/22 11:10:54;;;;;;;27.42;17.60;;;17.10;99.90;;;;;;5043132;28;20044;-53
2022/03/22 11:13:20;;;;;;;30.58;19.35;;;17.20;99.80;;;;;;5044929;28;20045;-52
2022/03/22 11:15:48;;;;;;;29.15;18.20;;;17.30;99.90;;;;;;5043554;28;20045;-51
2022/03/22 11:18:19;;;;;;;29.95;17.25;;;17.30;99.50;;;;;;5041047;28;20047;-48
2022/03/22 11:20:49;;;;;;;25.02;16.40;;;17.40;98.70;;;;;;5043448;28;20036;-50
2022/03/22 11:23:19;;;;;;;27.40;17.42;;;17.50;99.40;;;;;;5043933;28;20513;-49
2022/03/22 11:25:45;;;;;;;28.60;19.58;;;17.60;99.90;;;;;;5042635;28;20075;-49
2022/03/22 11:28:16;;;;;;;27.90;18.17;;;17.70;99.90;;;;;;5043870;28;20037;-50
2022/03/22 11:30:42;;;;;;;27.38;17.67;;;17.90;99.90;;;;;;5043868;28;20049;-53
2022/03/22 11:35:55;;;;;;;28.27;18.23;;;17.90;98.80;;;;;;5043311;28;20578;-51
2022/03/22 11:38:42;;;;;;;27.90;18.52;;;17.90;99.30;;;;;;5044258;28;20417;-51
2022/03/22 11:44:36;;;;;;;31.48;17.83;;;18.10;98.70;;;;;;5042114;28;20128;-47
2022/03/22 11:47:05;;;;;;;28.38;17.70;;;18.10;97.50;;;;;;5042302;28;20083;-50
2022/03/22 11:49:46;;;;;;;29.17;18.30;;;18.20;97.80;;;;;;5043621;28;20036;-47
2022/03/22 11:52:13;;;;;;;28.52;18.20;;;18.30;97.10;;;;;;5043472;28;20528;-52
2022/03/22 11:54:40;;;;;;;27.83;17.63;;;18.50;99.10;;;;;;5042900;28;20032;-46
2022/03/22 11:57:16;;;;;;;31.75;18.60;;;18.70;96.90;;;;;;5042951;28;20091;-52
2022/03/22 11:59:43;;;;;;;29.58;17.92;;;18.80;98.00;;;;;;5043598;28;20051;-48
2022/03/22 12:02:16;;;;;;;31.45;19.83;;;18.90;98.00;;;;;;5042912;28;20037;-52
2022/03/22 12:04:48;;;;;;;26.98;17.30;;;19.00;97.50;;;;;;5043765;28;20492;-51
2022/03/22 12:07:19;;;;;;;27.75;18.75;;;19.20;98.50;;;;;;5043654;28;20028;-49
2022/03/22 12:09:45;;;;;;;28.75;18.90;;;19.00;96.90;;;;;;5043631;28;20033;-50
2022/03/22 12:12:14;;;;;;;26.17;17.92;;;19.30;98.10;;;;;;5042305;28;20059;-53
2022/03/22 12:14:45;;;;;;;28.40;18.27;;;19.30;97.40;;;;;;5040388;28;20045;-51
2022/03/22 12:17:10;;;;;;;28.40;17.90;;;19.50;97.90;;;;;;5042442;28;20025;-51
2022/03/22 12:19:36;;;;;;;26.23;18.00;;;19.60;97.10;;;;;;5041972;28;20451;-48
2022/03/22 12:22:04;;;;;;;25.30;17.50;;;19.80;93.80;;;;;;5043069;28;20692;-51
2022/03/22 12:24:33;;;;;;;27.15;18.08;;;20.00;92.90;;;;;;5042964;28;20033;-50
2022/03/22 12:27:08;;;;;;;26.63;18.33;;;20.20;93.40;;;;;;5042086;28;20052;-49
2022/03/22 12:29:42;;;;;;;27.63;17.60;;;20.20;92.50;;;;;;5041981;28;20060;-47
2022/03/22 12:32:18;;;;;;;28.38;18.55;;;20.30;91.60;;;;;;5041795;28;20041;-51
2022/03/22 12:34:48;;;;;;;29.42;17.92;;;20.40;92.20;;;;;;5042054;28;20547;-51
2022/03/22 12:37:16;;;;;;;28.52;18.02;;;20.60;91.10;;;;;;5042563;28;20059;-50
2022/03/22 12:39:44;;;;;;;31.58;17.73;;;20.70;89.10;;;;;;5043148;28;20041;-52
2022/03/22 12:42:12;;;;;;;29.80;18.30;;;20.70;88.40;;;;;;5042089;28;20036;-53
2022/03/22 12:44:38;;;;;;;29.27;18.42;;;20.80;85.90;;;;;;5042944;28;20037;-50
2022/03/22 12:47:05;;;;;;;29.77;18.00;;;20.80;83.30;;;;;;5041415;28;20037;-49
2022/03/22 12:49:40;;;;;;;29.25;17.90;;;20.90;87.00;;;;;;5041567;28;20033;-51
2022/03/22 12:52:08;;;;;;;31.35;17.98;;;21.10;90.10;;;;;;5040282;28;20156;-50
2022/03/22 12:54:40;;;;;;;30.05;17.95;;;21.30;86.00;;;;;;5042917;28;20033;-51
2022/03/22 12:57:16;;;;;;;29.95;17.48;;;21.50;79.00;;;;;;5042424;28;20037;-47
2022/03/22 12:59:42;;;;;;;29.52;17.60;;;21.50;80.70;;;;;;5042897;28;20493;-50
2022/03/22 13:02:09;;;;;;;28.25;17.42;;;21.70;80.30;;;;;;5040166;28;20049;-51
2022/03/22 13:04:46;;;;;;;25.17;15.90;;;21.80;77.20;;;;;;5040538;28;20037;-50
2022/03/22 13:07:14;;;;;;;30.52;16.85;;;21.80;73.50;;;;;;5040857;28;20122;-50
2022/03/22 13:12:24;;;;;;;25.35;15.32;;;21.90;64.80;;;;;;5042406;28;20040;-52
2022/03/22 13:15:06;;;;;;;25.65;15.07;;;22.10;67.60;;;;;;5043062;28;20098;-49
2022/03/22 13:17:32;;;;;;;23.73;13.85;;;22.10;68.20;;;;;;5041537;28;20124;-50
2022/03/22 13:20:21;;;;;;;23.27;12.23;;;22.20;63.30;;;;;;5042585;28;20482;-47